Time;durP1;ratioP1;P1;durP2;ratioP2;P2;SDS_P1;SDS_P2;PMS_P1;PMS_P2;Temp;Humidity;BMP_temperature;BMP_pressure;BME280_temperature;BME280_humidity;BME280_pressure;Samples;Min_cycle;Max_cycle;Signal;HPM_P1;HPM_P2
2022/04/01 00:01:45;;;;;;;0.97;0.97;;;;;;;12.30;83.92;91047.22;4856577;29;20703;-81
2022/04/01 00:04:13;;;;;;;3.07;1.27;;;;;;;12.30;83.89;91018.56;4859196;29;20610;-83
2022/04/01 00:06:48;;;;;;;1.73;0.97;;;;;;;12.45;83.89;91035.94;4857259;29;20195;-82
2022/04/01 00:09:17;;;;;;;2.20;1.77;;;;;;;12.43;84.51;91035.28;4858543;29;20669;-80
2022/04/01 00:11:46;;;;;;;13.33;1.10;;;;;;;12.74;84.14;91076.00;4856987;29;20582;-79
2022/04/01 00:14:15;;;;;;;1.30;1.10;;;;;;;12.44;83.28;91016.63;4853797;29;20487;-79
2022/04/01 00:16:43;;;;;;;2.50;0.90;;;;;;;12.63;83.48;91027.88;4854103;29;20487;-81
2022/04/01 00:19:12;;;;;;;1.47;1.47;;;;;;;12.63;84.01;90982.28;4856137;29;20230;-79
2022/04/01 00:21:41;;;;;;;1.73;1.17;;;;;;;12.67;83.50;90989.56;4855843;29;20613;-79
2022/04/01 00:24:11;;;;;;;2.07;1.37;;;;;;;12.90;83.31;91014.84;4853343;29;20660;-79
2022/04/01 00:26:40;;;;;;;1.27;1.17;;;;;;;12.71;84.05;90995.19;4854419;29;20225;-78
2022/04/01 00:29:16;;;;;;;1.50;1.07;;;;;;;13.00;83.10;91029.22;4854863;29;20559;-80
2022/04/01 00:31:44;;;;;;;8.10;2.10;;;;;;;13.02;83.36;91018.94;4856313;29;20249;-79
2022/04/01 00:34:20;;;;;;;6.07;1.53;;;;;;;13.03;84.20;91036.59;4855983;29;20298;-77
2022/04/01 00:36:58;;;;;;;1.00;1.00;;;;;;;12.74;83.67;90989.88;4855155;29;20467;-78
2022/04/01 00:39:29;;;;;;;3.53;1.60;;;;;;;12.94;83.92;91006.91;4855955;29;20545;-79
2022/04/01 00:41:59;;;;;;;6.90;1.73;;;;;;;12.90;83.93;91007.25;4854048;29;21098;-79
2022/04/01 00:44:34;;;;;;;2.63;2.43;;;;;;;12.60;83.77;90959.72;4855760;29;20581;-79
2022/04/01 00:47:03;;;;;;;3.03;1.37;;;;;;;13.08;83.70;91013.41;4855262;29;20477;-80
2022/04/01 00:49:37;;;;;;;5.73;2.00;;;;;;;13.09;83.00;91018.38;4860371;29;20645;-81
2022/04/01 00:52:09;;;;;;;9.13;1.80;;;;;;;12.69;82.26;90966.63;4874740;29;20446;-83
2022/04/01 00:54:38;;;;;;;3.97;1.60;;;;;;;12.85;81.16;90992.38;4874481;29;20595;-80
2022/04/01 00:57:08;;;;;;;2.10;1.83;;;;;;;13.01;81.49;91015.63;4875558;29;20215;-79
2022/04/01 00:59:37;;;;;;;5.40;1.70;;;;;;;13.11;81.13;91014.00;4873981;29;20448;-80
2022/04/01 01:02:08;;;;;;;2.03;1.50;;;;;;;12.81;81.49;90980.88;4872984;29;20642;-79
2022/04/01 01:04:41;;;;;;;10.33;2.07;;;;;;;12.99;80.67;90994.66;4878052;29;20560;-80
2022/04/01 01:07:10;;;;;;;3.67;2.63;;;;;;;13.13;81.21;91016.41;4873367;29;20198;-84
2022/04/01 01:09:38;;;;;;;2.70;1.83;;;;;;;12.73;80.80;90942.69;4875889;29;20199;-80
2022/04/01 01:12:07;;;;;;;2.33;1.47;;;;;;;12.74;81.01;90955.19;4873540;29;20568;-78
2022/04/01 01:14:47;;;;;;;1.83;1.53;;;;;;;13.05;79.48;91017.00;4872990;29;20646;-80
2022/04/01 01:17:15;;;;;;;7.30;2.07;;;;;;;12.78;80.18;90963.38;4871778;29;20478;-79
2022/04/01 01:19:45;;;;;;;33.20;1.93;;;;;;;12.60;79.96;90967.34;4874588;29;20211;-79
2022/04/01 01:22:14;;;;;;;1.47;1.47;;;;;;;12.58;80.97;90954.78;4871355;29;20502;-82
2022/04/01 01:24:44;;;;;;;15.77;1.77;;;;;;;12.72;79.34;90984.94;4873241;29;20600;-83
2022/04/01 01:27:14;;;;;;;10.70;1.80;;;;;;;12.77;79.59;90987.91;4871464;29;20204;-80
2022/04/01 01:29:45;;;;;;;4.73;2.60;;;;;;;12.91;79.19;90984.31;4875650;29;20489;-81
2022/04/01 01:32:19;;;;;;;14.70;2.90;;;;;;;12.56;78.01;90931.31;4873526;29;20587;-83
2022/04/01 01:34:47;;;;;;;12.27;1.97;;;;;;;12.90;77.63;90990.28;4878321;29;20568;-80
2022/04/01 01:37:15;;;;;;;5.67;3.43;;;;;;;12.76;78.73;90965.22;4876471;29;20463;-79
2022/04/01 01:39:43;;;;;;;13.03;2.33;;;;;;;12.97;77.95;90998.22;4879149;29;20576;-81
2022/04/01 01:42:12;;;;;;;10.83;2.97;;;;;;;13.02;77.14;91009.63;4877237;29;20675;-79
2022/04/01 01:44:42;;;;;;;7.03;2.40;;;;;;;12.51;77.40;90943.50;4873529;29;20676;-79
2022/04/01 01:47:10;;;;;;;12.57;2.30;;;;;;;12.81;76.53;90998.63;4876959;29;20605;-80
2022/04/01 01:49:38;;;;;;;13.80;2.37;;;;;;;12.30;76.22;90927.41;4879271;29;20669;-78
2022/04/01 01:54:54;;;;;;;7.10;2.57;;;;;;;12.40;77.25;90901.28;4875820;29;20471;-82
2022/04/01 01:57:23;;;;;;;2.97;2.10;;;;;;;12.81;77.57;90963.94;4878198;29;20506;-79
2022/04/01 01:59:52;;;;;;;14.53;3.00;;;;;;;12.59;78.10;90932.78;4878176;29;20559;-78
2022/04/01 02:02:20;;;;;;;8.73;4.10;;;;;;;12.53;78.04;90953.53;4877007;29;20572;-79
2022/04/01 02:04:49;;;;;;;8.07;3.23;;;;;;;12.02;78.55;90867.97;4877487;29;20586;-79
2022/04/01 02:07:17;;;;;;;6.00;1.87;;;;;;;12.34;78.81;90916.94;4878343;29;20588;-82
2022/04/01 02:09:46;;;;;;;9.70;2.80;;;;;;;12.48;78.70;90970.78;4875691;29;20203;-79
2022/04/01 02:12:20;;;;;;;17.70;2.13;;;;;;;12.20;79.01;90899.47;4876311;29;20584;-80
2022/04/01 02:14:48;;;;;;;11.30;2.10;;;;;;;12.12;78.85;90884.06;4875804;29;20660;-80
2022/04/01 02:17:15;;;;;;;8.37;2.43;;;;;;;12.50;78.68;90946.16;4877156;29;20474;-81
2022/04/01 02:19:44;;;;;;;12.20;3.00;;;;;;;12.32;78.51;90928.13;4881180;29;20589;-79
2022/04/01 02:22:18;;;;;;;22.73;2.13;;;;;;;12.51;78.18;90970.56;4875625;29;20595;-77
2022/04/01 02:24:50;;;;;;;9.60;2.50;;;;;;;12.14;78.82;90920.19;4874460;29;20568;-77
2022/04/01 02:27:20;;;;;;;2.13;2.00;;;;;;;12.18;77.80;90930.88;4876900;29;20558;-77
2022/04/01 02:29:50;;;;;;;2.27;2.17;;;;;;;12.56;77.93;90989.56;4878195;29;20659;-78
2022/04/01 02:32:17;;;;;;;5.83;2.87;;;;;;;12.56;78.17;90983.69;4875159;29;20563;-78
2022/04/01 02:34:47;;;;;;;5.87;2.67;;;;;;;12.21;78.27;90936.53;4877074;29;20277;-76
2022/04/01 02:37:14;;;;;;;7.17;2.83;;;;;;;12.26;78.66;90936.19;4876062;29;20202;-77
2022/04/01 02:39:42;;;;;;;10.10;2.83;;;;;;;12.31;78.84;90969.53;4877347;29;20568;-76
2022/04/01 02:42:11;;;;;;;9.37;3.03;;;;;;;12.36;79.66;90954.81;4878140;29;20493;-77
2022/04/01 02:44:40;;;;;;;3.27;2.17;;;;;;;12.35;79.19;90975.97;4875390;29;20654;-80
2022/04/01 02:47:08;;;;;;;4.67;3.13;;;;;;;12.04;79.15;90920.09;4875968;29;20591;-79
2022/04/01 02:49:38;;;;;;;7.27;2.77;;;;;;;12.06;79.79;90907.28;4880445;29;20230;-80
2022/04/01 02:52:06;;;;;;;13.57;3.10;;;;;;;12.32;80.10;90945.84;4874485;29;20199;-76
2022/04/01 02:54:34;;;;;;;16.63;3.37;;;;;;;11.92;79.46;90879.72;4878377;29;20580;-76
2022/04/01 02:57:02;;;;;;;5.33;2.13;;;;;;;12.00;79.30;90898.44;4876885;29;20245;-75
2022/04/01 02:59:30;;;;;;;6.03;2.03;;;;;;;12.31;78.74;90956.88;4879267;29;20615;-77
2022/04/01 03:01:59;;;;;;;3.03;2.60;;;;;;;12.16;78.30;90910.75;4880294;29;20736;-83
2022/04/01 03:04:27;;;;;;;4.10;2.73;;;;;;;12.57;78.22;90962.50;4880066;29;20596;-76
2022/04/01 03:06:55;;;;;;;17.00;3.40;;;;;;;12.43;78.86;90935.69;4879906;29;20643;-76
2022/04/01 03:09:22;;;;;;;14.83;3.03;;;;;;;12.29;78.14;90920.75;4880274;29;20759;-75
2022/04/01 03:11:49;;;;;;;11.40;3.27;;;;;;;12.11;78.63;90884.19;4880362;29;20199;-76
2022/04/01 03:14:17;;;;;;;2.27;2.17;;;;;;;12.05;78.84;90876.13;4880415;29;20475;-76
2022/04/01 03:16:44;;;;;;;17.17;3.00;;;;;;;11.97;78.87;90863.25;4881076;29;20244;-75
2022/04/01 03:19:16;;;;;;;27.60;2.40;;;;;;;11.99;78.79;90861.44;4881751;29;20464;-74
2022/04/01 03:21:44;;;;;;;24.40;2.50;;;;;;;12.37;78.57;90941.22;4882056;29;20265;-77
2022/04/01 03:24:12;;;;;;;10.60;3.00;;;;;;;12.05;78.85;90888.78;4882391;29;20654;-76
2022/04/01 03:26:40;;;;;;;17.73;2.03;;;;;;;12.01;78.33;90866.34;4882417;29;20274;-76
2022/04/01 03:29:10;;;;;;;3.67;2.73;;;;;;;12.21;79.00;90910.41;4881295;29;20615;-76
2022/04/01 03:31:39;;;;;;;13.73;2.37;;;;;;;12.51;78.69;90950.28;4881355;29;20576;-76
2022/04/01 03:34:06;;;;;;;15.23;3.17;;;;;;;12.23;78.70;90900.94;4881574;29;20590;-75
2022/04/01 03:36:35;;;;;;;6.87;2.93;;;;;;;12.02;79.04;90871.31;4880915;29;20659;-75
2022/04/01 03:39:04;;;;;;;8.40;3.97;;;;;;;12.45;79.65;90954.09;4883496;29;20475;-75
2022/04/01 03:41:31;;;;;;;7.27;3.37;;;;;;;11.93;79.27;90871.22;4882105;29;20632;-76
2022/04/01 03:44:00;;;;;;;17.77;2.40;;;;;;;12.39;79.23;90955.38;4881504;29;20620;-75
2022/04/01 03:46:44;;;;;;;10.40;3.70;;;;;;;11.90;79.74;90868.88;4881965;29;20229;-74
2022/04/01 03:49:14;;;;;;;3.23;2.70;;;;;;;12.26;79.54;90939.53;4882347;29;20556;-76
2022/04/01 03:51:49;;;;;;;7.10;2.83;;;;;;;12.22;79.25;90929.75;4880961;29;20591;-77
2022/04/01 03:54:17;;;;;;;5.97;2.90;;;;;;;12.35;79.46;90959.06;4881242;29;20704;-76
2022/04/01 03:56:51;;;;;;;5.57;2.80;;;;;;;12.00;79.11;90890.84;4881414;29;20578;-75
2022/04/01 03:59:21;;;;;;;25.80;4.73;;;;;;;12.13;80.13;90918.56;4881419;29;20576;-78
2022/04/01 04:01:49;;;;;;;30.30;3.73;;;;;;;11.83;79.36;90880.41;4880816;29;20463;-75
2022/04/01 04:04:18;;;;;;;3.07;2.17;;;;;;;12.34;79.42;90952.38;4882006;29;20219;-77
2022/04/01 04:06:48;;;;;;;10.60;3.23;;;;;;;12.19;79.04;90935.84;4881292;29;20587;-75
2022/04/01 04:09:17;;;;;;;1.77;1.70;;;;;;;12.34;79.14;90966.78;4882497;29;20451;-75
2022/04/01 04:11:46;;;;;;;8.27;2.77;;;;;;;11.86;79.13;90883.50;4880756;29;20537;-79
2022/04/01 04:14:13;;;;;;;6.87;2.43;;;;;;;12.02;79.52;90918.59;4881041;29;20461;-75
2022/04/01 04:16:47;;;;;;;5.87;3.07;;;;;;;12.32;79.25;90971.97;4881161;29;20277;-75
2022/04/01 04:19:24;;;;;;;20.87;3.80;;;;;;;12.23;79.48;90939.72;4881757;29;20529;-75
2022/04/01 04:22:03;;;;;;;6.03;2.00;;;;;;;12.21;79.51;90944.13;4880940;29;20639;-74
2022/04/01 04:24:36;;;;;;;14.43;4.43;;;;;;;12.02;79.62;90914.31;4881896;29;20297;-74
2022/04/01 04:27:10;;;;;;;7.33;3.93;;;;;;;11.87;79.39;90871.66;4880118;29;20230;-75
2022/04/01 04:29:47;;;;;;;8.93;4.17;;;;;;;12.27;79.39;90932.72;4881495;29;20191;-74
2022/04/01 04:32:27;;;;;;;4.60;3.13;;;;;;;11.95;79.07;90882.00;4866735;29;20237;-75
2022/04/01 04:34:58;;;;;;;4.17;2.63;;;;;;;12.34;79.20;90934.66;4872890;29;20506;-74
2022/04/01 04:37:33;;;;;;;16.07;4.07;;;;;;;12.25;79.20;90894.06;4872515;29;20556;-73
2022/04/01 04:40:12;;;;;;;4.33;2.47;;;;;;;12.45;79.00;90934.66;4873785;29;20529;-74
2022/04/01 04:42:47;;;;;;;8.00;2.60;;;;;;;11.99;78.70;90860.63;4869591;29;20596;-74
2022/04/01 04:45:20;;;;;;;3.50;2.73;;;;;;;12.02;78.13;90840.13;4873148;29;20231;-74
2022/04/01 04:47:51;;;;;;;3.20;2.57;;;;;;;12.19;77.74;90874.28;4878313;29;20565;-77
2022/04/01 04:50:23;;;;;;;20.50;3.40;;;;;;;12.14;77.99;90851.03;4877710;29;20607;-77
2022/04/01 04:52:56;;;;;;;7.87;3.20;;;;;;;12.51;77.57;90940.97;4891469;29;20220;-75
2022/04/01 04:55:28;;;;;;;14.23;3.30;;;;;;;12.48;76.98;90903.22;4893106;29;20646;-77
2022/04/01 04:58:01;;;;;;;7.80;3.90;;;;;;;12.37;76.58;90881.25;4888952;29;20498;-78
2022/04/01 05:00:28;;;;;;;9.97;2.60;;;;;;;12.79;76.64;90930.31;4890832;29;20308;-76
2022/04/01 05:03:13;;;;;;;3.70;1.87;;;;;;;12.81;76.29;90946.22;4890140;29;20718;-76
2022/04/01 05:05:44;;;;;;;8.53;3.50;;;;;;;12.77;76.89;90919.50;4891169;29;20310;-76
2022/04/01 05:08:25;;;;;;;5.00;4.07;;;;;;;12.70;76.50;90932.75;4890849;28;20491;-77
2022/04/01 05:11:06;;;;;;;34.57;3.90;;;;;;;12.77;76.36;90933.91;4892703;29;20637;-76
2022/04/01 05:13:57;;;;;;;9.87;4.50;;;;;;;12.66;77.29;90922.06;4889353;29;20676;-77
2022/04/01 05:16:33;;;;;;;8.87;2.83;;;;;;;12.63;76.38;90917.22;4893429;29;20587;-75
2022/04/01 05:19:12;;;;;;;10.27;4.70;;;;;;;12.69;76.75;90911.69;4893430;29;20555;-76
2022/04/01 05:21:47;;;;;;;11.87;5.60;;;;;;;12.94;77.08;90930.03;4890074;29;20568;-76
2022/04/01 05:24:25;;;;;;;17.60;4.47;;;;;;;12.82;75.80;90914.06;4890554;29;20591;-75
2022/04/01 05:26:56;;;;;;;11.63;4.60;;;;;;;12.75;75.88;90911.22;4892301;29;20484;-75
2022/04/01 05:29:31;;;;;;;15.98;5.10;;;;;;;13.21;75.71;90971.81;4889436;29;20602;-77
2022/04/01 05:32:03;;;;;;;10.60;3.23;;;;;;;13.03;75.69;90945.34;4893704;28;20492;-75
2022/04/01 05:34:35;;;;;;;9.00;3.60;;;;;;;13.23;75.64;90969.97;4891051;29;20482;-79
2022/04/01 05:37:04;;;;;;;17.77;3.90;;;;;;;13.22;75.46;90963.28;4891015;29;20565;-79
2022/04/01 05:39:35;;;;;;;11.63;4.00;;;;;;;12.97;75.13;90915.38;4888018;29;20638;-77
2022/04/01 05:42:03;;;;;;;13.27;3.60;;;;;;;13.26;75.04;90948.63;4891885;29;20638;-76
2022/04/01 05:44:31;;;;;;;17.00;4.53;;;;;;;13.32;74.48;90955.75;4891217;29;20241;-77
2022/04/01 05:47:00;;;;;;;23.27;3.38;;;;;;;12.96;75.14;90892.72;4890965;29;20636;-77
2022/04/01 05:49:29;;;;;;;18.85;4.80;;;;;;;13.11;75.67;90892.31;4889298;29;20468;-76
2022/04/01 05:51:57;;;;;;;21.20;4.47;;;;;;;13.06;75.45;90904.53;4893600;29;20564;-75
2022/04/01 05:54:26;;;;;;;17.80;3.80;;;;;;;13.50;75.37;90958.53;4889491;29;20198;-75
2022/04/01 05:56:55;;;;;;;11.33;4.83;;;;;;;13.64;75.04;90961.56;4890688;29;20629;-76
2022/04/01 05:59:24;;;;;;;20.63;3.92;;;;;;;13.29;73.52;90906.06;4892849;29;20565;-78
2022/04/01 06:02:05;;;;;;;28.10;3.97;;;;;;;13.63;72.66;90959.94;4894772;28;20603;-79
2022/04/01 06:05:03;;;;;;;18.50;3.13;;;;;;;13.60;73.56;90934.03;4896548;29;20229;-78
2022/04/01 06:07:38;;;;;;;8.02;3.17;;;;;;;13.20;72.72;90898.38;4891584;29;20488;-77
2022/04/01 06:10:09;;;;;;;26.63;5.53;;;;;;;13.51;73.95;90922.91;4893537;29;20589;-75
2022/04/01 06:12:49;;;;;;;12.70;4.32;;;;;;;13.68;72.71;90952.00;4888865;29;20232;-77
2022/04/01 06:15:27;;;;;;;17.13;4.78;;;;;;;13.65;72.13;90932.72;4897001;29;20573;-76
2022/04/01 06:21:00;;;;;;;9.00;3.83;;;;;;;13.98;71.57;90946.94;4895931;28;20471;-76
2022/04/01 06:23:37;;;;;;;21.23;4.45;;;;;;;14.06;70.76;90951.38;4890985;29;20617;-76
2022/04/01 06:26:11;;;;;;;17.38;7.93;;;;;;;13.90;70.70;90910.44;4892643;29;20576;-75
2022/04/01 06:28:50;;;;;;;26.00;5.05;;;;;;;14.40;71.24;90967.22;4895079;29;20654;-75
2022/04/01 06:31:22;;;;;;;6.22;4.35;;;;;;;14.48;69.86;90982.59;4894293;29;20649;-75
2022/04/01 06:34:03;;;;;;;12.68;3.58;;;;;;;14.60;70.05;90980.78;4894264;29;20237;-75
2022/04/01 06:36:39;;;;;;;16.00;2.83;;;;;;;14.57;70.65;90955.63;4892150;29;20650;-75
2022/04/01 06:39:09;;;;;;;16.67;4.03;;;;;;;14.70;70.50;90971.47;4892764;29;20469;-76
2022/04/01 06:41:45;;;;;;;8.70;2.30;;;;;;;14.59;70.03;90972.34;4893392;29;20678;-74
2022/04/01 06:44:14;;;;;;;10.98;4.20;;;;;;;14.37;69.39;90944.59;4888461;29;20265;-74
2022/04/01 06:46:42;;;;;;;16.00;3.00;;;;;;;14.51;70.29;90959.50;4889290;29;20234;-79
2022/04/01 06:49:10;;;;;;;5.57;2.53;;;;;;;14.57;69.39;90976.78;4888796;29;20583;-74
2022/04/01 06:51:39;;;;;;;11.25;3.10;;;;;;;14.47;70.27;90953.06;4868467;29;20564;-73
2022/04/01 06:54:07;;;;;;;22.38;3.63;;;;;;;14.36;69.28;90940.44;4869643;29;20261;-74
2022/04/01 06:56:35;;;;;;;9.35;2.72;;;;;;;14.55;69.59;90973.53;4876092;29;20568;-80
2022/04/01 06:59:03;;;;;;;4.38;3.40;;;;;;;14.48;70.50;90960.53;4878885;29;20577;-77
2022/04/01 07:01:33;;;;;;;18.60;3.30;;;;;;;14.49;69.39;90949.44;4871838;29;20220;-76
2022/04/01 07:04:00;;;;;;;9.68;2.22;;;;;;;14.68;70.19;90979.22;4877882;29;20715;-75
2022/04/01 07:06:30;;;;;;;10.57;3.42;;;;;;;14.57;69.70;90946.28;4872439;29;20570;-75
2022/04/01 07:08:59;;;;;;;36.17;4.50;;;;;;;14.75;70.01;90972.69;4874452;29;20675;-76
2022/04/01 07:11:26;;;;;;;11.80;3.53;;;;;;;14.82;70.35;90966.13;4878070;29;20302;-75
2022/04/01 07:14:03;;;;;;;10.82;3.75;;;;;;;14.70;69.78;90926.53;4871721;29;20526;-80
2022/04/01 07:16:30;;;;;;;19.95;5.45;;;;;;;14.96;69.80;90961.59;4871422;29;20507;-77
2022/04/01 07:19:01;;;;;;;17.33;3.42;;;;;;;15.11;69.19;90976.34;4876277;29;20588;-77
2022/04/01 07:21:29;;;;;;;12.80;3.30;;;;;;;15.17;70.48;90962.28;4871411;29;20544;-75
2022/04/01 07:23:59;;;;;;;13.00;4.15;;;;;;;15.24;68.80;90971.00;4873033;29;20514;-77
2022/04/01 07:26:27;;;;;;;20.05;3.58;;;;;;;15.23;68.45;90969.41;4871706;29;20572;-74
2022/04/01 07:28:55;;;;;;;15.55;4.28;;;;;;;15.22;69.50;90958.41;4876551;29;20497;-77
2022/04/01 07:34:23;;;;;;;16.98;3.90;;;;;;;15.29;70.32;90951.06;4800149;29;20467;-75
2022/04/01 07:36:51;;;;;;;19.90;4.20;;;;;;;15.16;69.46;90955.59;4858189;29;20576;-76
2022/04/01 07:39:19;;;;;;;14.00;3.70;;;;;;;14.76;69.55;90880.22;4875210;29;20598;-77
2022/04/01 07:41:46;;;;;;;6.82;2.90;;;;;;;15.26;70.54;90934.34;4871910;29;20588;-84
2022/04/01 07:57:03;;;;;;;6.47;2.45;;;;;;;15.26;69.02;90936.88;5079989;27;20881;-77
2022/04/01 08:02:49;;;;;;;17.42;3.17;;;;;;;15.20;69.80;90926.44;5075807;27;20626;-76
2022/04/01 08:05:53;;;;;;;17.33;3.53;;;;;;;14.82;70.19;90848.38;5075427;27;20326;-83
2022/04/01 08:08:38;;;;;;;7.57;2.90;;;;;;;15.37;71.28;90909.69;5079274;27;20531;-76
2022/04/01 08:11:41;;;;;;;8.60;3.38;;;;;;;15.52;69.11;90931.25;5080801;27;20552;-78
2022/04/01 08:14:37;;;;;;;19.95;3.80;;;;;;;15.55;68.16;90938.66;5077527;27;20467;-78
2022/04/01 08:17:32;;;;;;;20.73;3.47;;;;;;;15.52;69.28;90926.16;5073934;27;20485;-76
2022/04/01 08:20:12;;;;;;;16.83;3.10;;;;;;;15.17;68.22;90863.09;5083397;27;20498;-78
2022/04/01 08:22:53;;;;;;;15.00;3.88;;;;;;;15.44;68.84;90885.28;5074431;27;20679;-76
2022/04/01 08:25:41;;;;;;;9.60;3.22;;;;;;;15.62;67.42;90920.13;5071878;27;20630;-80
2022/04/01 08:28:14;;;;;;;5.45;1.67;;;;;;;15.43;67.53;90886.25;5074339;27;20663;-77
2022/04/01 08:30:50;;;;;;;3.97;2.60;;;;;;;15.29;67.57;90878.09;5082084;27;20484;-77
2022/04/01 08:33:41;;;;;;;11.77;4.22;;;;;;;15.36;67.50;90875.81;5077476;27;20658;-77
2022/04/01 08:36:19;;;;;;;9.45;3.22;;;;;;;15.69;69.54;90877.13;5073981;27;20587;-77
2022/04/01 08:38:55;;;;;;;11.05;3.33;;;;;;;15.88;68.72;90919.56;5070883;27;20626;-74
2022/04/01 08:41:40;;;;;;;8.48;3.22;;;;;;;15.85;67.75;90909.63;5072615;27;20653;-75
2022/04/01 08:44:23;;;;;;;6.57;3.08;;;;;;;16.12;66.91;90919.88;5070949;27;20662;-73
2022/04/01 08:47:05;;;;;;;11.65;3.35;;;;;;;16.04;66.20;90946.06;5071935;27;20200;-75
2022/04/01 08:49:44;;;;;;;13.68;2.80;;;;;;;15.92;67.32;90920.88;5074324;27;20200;-77
2022/04/01 08:52:25;;;;;;;13.18;2.95;;;;;;;15.70;68.20;90871.09;5053959;27;20577;-74
2022/04/01 08:54:58;;;;;;;3.55;3.35;;;;;;;15.51;66.03;90853.28;5050597;27;20605;-77
2022/04/01 08:57:39;;;;;;;12.60;2.90;;;;;;;15.80;67.78;90910.06;5041865;28;20665;-76
2022/04/01 09:00:40;;;;;;;10.30;3.35;;;;;;;16.00;68.10;90887.91;5044478;28;20201;-76
2022/04/01 09:03:40;;;;;;;8.35;3.00;;;;;;;15.56;67.43;90821.41;5039796;28;20603;-75
2022/04/01 09:06:26;;;;;;;10.55;3.10;;;;;;;16.05;66.32;90873.00;5041882;28;20325;-79
2022/04/01 09:09:00;;;;;;;18.13;3.08;;;;;;;15.91;66.55;90853.88;5042887;28;20216;-77
2022/04/01 09:11:37;;;;;;;4.95;2.83;;;;;;;16.25;66.14;90906.81;5042430;28;20608;-76
2022/04/01 09:14:24;;;;;;;7.63;3.35;;;;;;;16.24;66.15;90905.22;5040447;28;20193;-76
2022/04/01 09:17:08;;;;;;;16.90;4.55;;;;;;;16.35;66.84;90925.41;5040060;28;20564;-75
2022/04/01 09:19:44;;;;;;;7.57;2.83;;;;;;;16.25;66.04;90894.88;5052128;28;20537;-79
2022/04/01 09:22:27;;;;;;;9.52;3.25;;;;;;;15.95;66.14;90862.81;5037356;28;20641;-75
2022/04/01 09:25:04;;;;;;;7.35;2.05;;;;;;;16.12;65.89;90864.63;5037322;28;20633;-76
2022/04/01 09:27:51;;;;;;;7.88;2.95;;;;;;;16.36;66.04;90896.44;5039700;28;20667;-77
2022/04/01 09:30:31;;;;;;;12.75;3.10;;;;;;;16.08;64.85;90834.50;5039573;28;20502;-76
2022/04/01 09:33:04;;;;;;;13.38;3.90;;;;;;;16.22;65.34;90851.88;5042891;28;20527;-76
2022/04/01 09:35:39;;;;;;;15.55;3.95;;;;;;;16.22;66.39;90823.03;5039512;28;20576;-75
2022/04/01 09:38:13;;;;;;;11.35;3.75;;;;;;;16.66;64.28;90905.59;5043014;28;20201;-75
2022/04/01 09:40:44;;;;;;;6.07;2.75;;;;;;;16.45;64.02;90847.97;5040286;28;20631;-74
2022/04/01 09:43:46;;;;;;;6.43;3.35;;;;;;;16.89;63.96;90894.06;5045543;28;20465;-74
2022/04/01 09:46:35;;;;;;;9.80;3.83;;;;;;;16.49;63.60;90834.00;5047312;28;20592;-76
2022/04/01 09:49:36;;;;;;;18.75;4.20;;;;;;;17.13;64.12;90873.03;5038168;28;20569;-75
2022/04/01 09:52:18;;;;;;;10.38;2.72;;;;;;;17.23;63.02;90871.25;5042477;28;20285;-75
2022/04/01 09:54:53;;;;;;;7.80;3.20;;;;;;;17.30;61.91;90911.31;5037655;28;20641;-75
2022/04/01 09:57:36;;;;;;;12.30;3.85;;;;;;;17.08;61.84;90886.25;5038703;28;20546;-74
2022/04/01 10:00:14;;;;;;;11.57;3.15;;;;;;;17.05;61.30;90904.41;5042222;28;20626;-75
2022/04/01 10:02:46;;;;;;;11.98;2.60;;;;;;;16.84;61.97;90871.53;5041002;28;20711;-74
2022/04/01 10:05:22;;;;;;;21.33;2.40;;;;;;;17.15;61.44;90881.38;5038986;28;20503;-75
2022/04/01 10:08:14;;;;;;;8.23;3.30;;;;;;;17.18;61.42;90879.31;5039103;28;20475;-78
2022/04/01 10:10:56;;;;;;;5.90;2.90;;;;;;;17.15;60.39;90831.13;5040686;28;20577;-76
2022/04/01 10:13:38;;;;;;;3.80;3.53;;;;;;;17.48;59.54;90911.31;5042496;28;20248;-76
2022/04/01 10:16:18;;;;;;;10.88;2.75;;;;;;;17.39;61.58;90836.44;5039490;28;20655;-75
2022/04/01 10:18:58;;;;;;;10.23;2.83;;;;;;;17.37;60.20;90810.25;5037538;28;20562;-75
2022/04/01 10:21:54;;;;;;;5.15;2.70;;;;;;;18.16;59.70;90896.16;5040789;28;20621;-75
2022/04/01 10:24:43;;;;;;;5.65;2.40;;;;;;;19.04;56.58;90929.00;5038176;28;20593;-75
2022/04/01 10:27:31;;;;;;;4.22;3.38;;;;;;;20.36;52.68;90867.38;5038757;28;20585;-76
2022/04/01 10:30:05;;;;;;;6.80;2.38;;;;;;;22.01;47.64;90974.09;5038625;28;20198;-76
2022/04/01 10:32:49;;;;;;;6.00;1.95;;;;;;;21.91;46.08;90938.31;5042591;28;20462;-77
2022/04/01 10:35:39;;;;;;;8.90;2.80;;;;;;;21.57;45.89;90943.03;5041070;28;20575;-76
2022/04/01 10:38:21;;;;;;;8.27;2.97;;;;;;;21.26;47.27;90897.63;5036414;28;20575;-78
2022/04/01 10:41:19;;;;;;;10.90;3.42;;;;;;;21.63;47.70;90860.13;5037140;28;20566;-78
2022/04/01 10:44:20;;;;;;;18.15;3.22;;;;;;;23.00;44.67;90920.50;5042788;28;20542;-77
2022/04/01 10:47:03;;;;;;;14.35;4.10;;;;;;;23.63;42.16;90910.53;5038241;28;20231;-76
2022/04/01 10:52:30;;;;;;;6.03;2.38;;;;;;;23.68;39.81;90890.94;5038872;28;20643;-77
2022/04/01 10:55:18;;;;;;;10.55;3.60;;;;;;;23.86;41.19;90929.19;5048040;28;20626;-76
2022/04/01 10:58:11;;;;;;;7.03;2.83;;;;;;;23.10;41.39;90848.88;5042133;28;20202;-78
2022/04/01 11:00:55;;;;;;;17.17;3.47;;;;;;;22.90;40.79;90855.63;5040933;28;20571;-76
2022/04/01 11:04:01;;;;;;;11.82;3.35;;;;;;;22.48;42.04;90888.94;5039106;28;20523;-74
2022/04/01 11:06:56;;;;;;;9.77;3.45;;;;;;;22.25;42.87;90869.19;5038332;28;20522;-73
2022/04/01 11:09:42;;;;;;;8.90;2.75;;;;;;;22.95;42.65;90840.41;5041336;28;20492;-75
2022/04/01 11:12:39;;;;;;;11.02;3.40;;;;;;;23.92;40.39;90893.16;5039920;28;20488;-77
2022/04/01 11:15:33;;;;;;;10.70;3.40;;;;;;;24.54;38.93;90901.97;5049041;28;20539;-77
2022/04/01 11:21:44;;;;;;;10.35;2.42;;;;;;;24.78;37.87;90912.63;5036704;28;20562;-78
2022/04/01 11:24:41;;;;;;;12.77;3.85;;;;;;;24.30;38.58;90877.38;5037661;28;20580;-78
2022/04/01 11:27:28;;;;;;;8.55;2.70;;;;;;;23.84;39.43;90890.69;5042059;28;20573;-76
2022/04/01 11:30:13;;;;;;;8.13;3.08;;;;;;;22.83;40.00;90803.22;5036740;28;20284;-77
2022/04/01 11:32:58;;;;;;;10.73;2.70;;;;;;;22.69;40.70;90824.63;5036343;28;20202;-77
2022/04/01 11:35:34;;;;;;;13.38;2.65;;;;;;;22.87;41.04;90796.72;5037751;28;20193;-75
2022/04/01 11:38:08;;;;;;;13.27;3.30;;;;;;;22.64;41.28;90838.06;5037575;28;20599;-75
2022/04/01 11:40:43;;;;;;;7.47;3.28;;;;;;;21.97;43.01;90773.03;5037335;28;20542;-78
2022/04/01 11:43:21;;;;;;;15.55;3.33;;;;;;;21.36;42.34;90774.06;5042719;28;20555;-74
2022/04/01 11:45:57;;;;;;;5.90;2.85;;;;;;;20.57;45.06;90754.72;5040247;28;20508;-81
2022/04/01 11:48:37;;;;;;;15.90;3.55;;;;;;;20.81;46.40;90800.78;5038954;28;20581;-76
2022/04/01 11:51:18;;;;;;;4.38;2.92;;;;;;;20.65;46.21;90806.00;5037575;28;20588;-77
2022/04/01 11:53:49;;;;;;;7.85;2.65;;;;;;;19.59;47.64;90764.53;5038530;28;20534;-81
2022/04/01 11:56:18;;;;;;;3.67;2.25;;;;;;;19.47;48.98;90763.28;5044997;28;20585;-75
2022/04/01 11:58:54;;;;;;;6.55;3.00;;;;;;;19.38;49.70;90784.69;5036010;28;20201;-76
2022/04/01 12:01:24;;;;;;;15.00;3.72;;;;;;;18.73;49.82;90717.38;5055146;28;20462;-78
2022/04/01 12:04:03;;;;;;;15.20;2.75;;;;;;;18.39;50.76;90704.69;5053304;28;20646;-74
2022/04/01 12:09:14;;;;;;;19.52;3.10;;;;;;;17.50;53.40;90701.81;5055655;28;20562;-73
2022/04/01 12:11:45;;;;;;;24.25;4.78;;;;;;;17.46;54.77;90705.66;5054590;28;20497;-75
2022/04/01 12:14:12;;;;;;;9.10;3.20;;;;;;;17.29;54.85;90700.47;5045629;28;20670;-76
2022/04/01 12:16:41;;;;;;;4.45;3.92;;;;;;;17.65;55.90;90771.81;5039584;28;20666;-81
2022/04/01 12:19:16;;;;;;;8.30;2.33;;;;;;;17.16;56.03;90742.63;5036162;28;20463;-78
2022/04/01 12:21:44;;;;;;;4.50;2.67;;;;;;;17.23;56.59;90764.06;5037412;28;20485;-79
2022/04/01 12:24:12;;;;;;;11.68;2.65;;;;;;;16.74;57.56;90694.03;5043819;28;20205;-79
2022/04/01 12:26:41;;;;;;;4.70;2.60;;;;;;;16.50;57.69;90705.63;5034954;28;20585;-80
2022/04/01 12:29:19;;;;;;;11.00;2.95;;;;;;;16.69;59.44;90708.97;5032864;28;20589;-78
2022/04/01 12:31:55;;;;;;;5.55;2.35;;;;;;;16.57;61.68;90668.38;5053933;28;20686;-77
2022/04/01 12:34:26;;;;;;;11.15;2.35;;;;;;;16.71;61.71;90654.34;5037965;28;20493;-79
2022/04/01 12:36:59;;;;;;;9.10;2.25;;;;;;;16.40;60.55;90615.69;5048403;28;20196;-76
2022/04/01 12:39:27;;;;;;;5.70;2.60;;;;;;;16.26;61.68;90584.84;5039086;28;20574;-81